createdAt,value
2023-04-01T00:00:03.425Z,5.6
2023-04-01T00:30:03.153Z,5.5
2023-04-01T01:00:10.181Z,4.8
2023-04-01T01:30:10.330Z,4.6
2023-04-01T02:00:26.569Z,4.2
2023-04-01T02:30:03.426Z,4.1
2023-04-01T03:00:03.228Z,4.6
2023-04-01T03:30:18.627Z,4.9
2023-04-01T04:00:26.151Z,4.7
2023-04-01T04:30:21.032Z,4.5
2023-04-01T05:00:21.730Z,4.7
2023-04-01T05:30:21.784Z,4.8
2023-04-01T06:00:23.248Z,4.8
2023-04-01T06:30:16.023Z,4.5
2023-04-01T07:00:01.283Z,4.6
2023-04-01T07:30:16.391Z,4.9
2023-04-01T08:00:09.085Z,4.9
2023-04-01T08:30:02.197Z,5
2023-04-01T09:30:04.214Z,4.9
2023-04-01T10:00:04.802Z,4.9
2023-04-01T10:30:20.220Z,4.7
2023-04-01T11:00:20.100Z,4.9
2023-04-01T11:30:28.495Z,5.2
2023-04-01T12:00:27.818Z,4.7
2023-04-01T12:30:13.978Z,5.4
2023-04-01T13:00:05.915Z,5.8
2023-04-01T13:30:05.678Z,5.7
2023-04-01T14:00:02.011Z,5.9
2023-04-01T14:30:08.683Z,6.3
2023-04-01T15:00:08.911Z,6.2
2023-04-01T15:30:01.668Z,6.5
2023-04-01T16:00:01.342Z,6.6
2023-04-01T16:30:17.342Z,6.5
2023-04-01T17:00:17.839Z,6.7
2023-04-01T17:30:25.621Z,6.1
2023-04-01T18:00:10.267Z,6.2
2023-04-01T18:30:20.114Z,5.9
2023-04-01T19:00:06.208Z,6.1
2023-04-01T19:30:13.019Z,6.3
2023-04-01T20:00:13.889Z,6.2
2023-04-01T20:30:23.103Z,5.8
2023-04-01T21:00:07.561Z,5.6
2023-04-01T21:30:16.258Z,5.5
2023-04-01T22:00:31.240Z,5.1
2023-04-01T22:30:02.003Z,4.8
2023-04-01T23:30:03.685Z,5
